createdAt,value
2018-11-25T00:02:00.719Z,24.43
2018-11-25T00:04:34.729Z,23.63
2018-11-25T00:07:08.746Z,25.60
2018-11-25T00:09:42.734Z,21.23
2018-11-25T00:12:16.738Z,21.10
2018-11-25T00:14:50.762Z,20.77
2018-11-25T00:17:24.787Z,22.70
2018-11-25T00:19:58.730Z,23.20
2018-11-25T00:22:32.773Z,21.50
2018-11-25T00:25:07.556Z,23.87
2018-11-25T00:27:41.394Z,19.90
2018-11-25T00:30:15.671Z,24.00
2018-11-25T00:32:49.534Z,21.83
2018-11-25T00:35:23.626Z,21.40
2018-11-25T00:37:57.608Z,20.70
2018-11-25T00:40:31.647Z,23.70
2018-11-25T00:43:05.726Z,23.97
2018-11-25T00:45:39.571Z,23.57
2018-11-25T00:48:13.656Z,23.67
2018-11-25T00:50:47.674Z,23.67
2018-11-25T00:53:21.655Z,26.10
2018-11-25T00:55:55.687Z,24.73
2018-11-25T00:58:29.612Z,24.37
2018-11-25T01:01:03.643Z,23.60
2018-11-25T01:03:37.627Z,27.00
2018-11-25T01:06:11.854Z,24.60
2018-11-25T01:08:45.775Z,24.17
2018-11-25T01:11:19.799Z,22.50
2018-11-25T01:13:53.799Z,23.10
2018-11-25T01:16:27.976Z,23.67
2018-11-25T01:19:02.058Z,21.80
2018-11-25T01:21:36.333Z,20.13
2018-11-25T01:24:10.267Z,21.93
2018-11-25T01:26:44.261Z,19.20
2018-11-25T01:29:18.304Z,20.90
2018-11-25T01:31:52.298Z,20.73
2018-11-25T01:34:26.374Z,20.47
2018-11-25T01:37:00.356Z,22.67
2018-11-25T01:39:34.395Z,21.70
2018-11-25T01:42:08.373Z,23.23
2018-11-25T01:44:42.418Z,22.40
2018-11-25T01:47:16.471Z,22.33
2018-11-25T01:49:50.461Z,21.20
2018-11-25T01:52:24.367Z,17.90
2018-11-25T01:54:58.383Z,18.30
2018-11-25T01:57:33.403Z,18.03
2018-11-25T02:00:10.355Z,17.77
2018-11-25T02:02:44.237Z,16.97
2018-11-25T02:05:18.328Z,17.17
2018-11-25T02:07:52.171Z,15.83
2018-11-25T02:10:26.147Z,13.10
2018-11-25T02:13:00.132Z,14.40
2018-11-25T02:15:34.169Z,15.60
2018-11-25T02:18:08.023Z,14.83
2018-11-25T02:20:41.972Z,14.13
2018-11-25T02:23:15.811Z,16.80
2018-11-25T02:25:49.654Z,18.77
2018-11-25T02:28:23.590Z,17.70
2018-11-25T02:30:57.523Z,16.40
2018-11-25T02:33:31.553Z,17.87
2018-11-25T02:36:05.588Z,16.60
2018-11-25T02:38:39.646Z,18.17
2018-11-25T02:41:13.645Z,18.90
2018-11-25T02:43:47.494Z,20.73
2018-11-25T02:46:21.500Z,18.80
2018-11-25T02:48:55.483Z,20.77
2018-11-25T02:51:29.490Z,21.10
2018-11-25T02:54:03.533Z,19.00
2018-11-25T02:56:37.483Z,21.47
2018-11-25T02:59:11.447Z,22.13
2018-11-25T03:01:45.430Z,22.47
2018-11-25T03:04:19.403Z,21.70
2018-11-25T03:06:53.321Z,22.10
2018-11-25T03:09:27.265Z,22.73
2018-11-25T03:12:01.203Z,21.47
2018-11-25T03:14:35.183Z,23.30
2018-11-25T03:17:09.143Z,20.60
2018-11-25T03:19:43.126Z,21.17
2018-11-25T03:22:17.102Z,19.60
2018-11-25T03:24:51.130Z,18.90
2018-11-25T03:27:25.094Z,19.97
2018-11-25T03:29:59.068Z,17.47
2018-11-25T03:32:32.919Z,18.60
2018-11-25T03:35:07.302Z,19.53
2018-11-25T03:37:41.313Z,19.13
2018-11-25T03:40:15.781Z,19.67
2018-11-25T03:42:49.736Z,20.80
2018-11-25T03:45:24.301Z,19.70
2018-11-25T03:47:58.170Z,21.50
2018-11-25T03:50:32.075Z,19.73
2018-11-25T03:53:06.051Z,21.47
2018-11-25T03:55:39.981Z,20.63
2018-11-25T03:58:13.959Z,27.10
2018-11-25T04:00:47.993Z,23.70
2018-11-25T04:03:22.004Z,21.77
2018-11-25T04:05:55.843Z,23.20
2018-11-25T04:08:29.688Z,22.53
2018-11-25T04:11:03.731Z,22.00
2018-11-25T04:13:37.673Z,21.63
2018-11-25T04:16:11.775Z,21.13
2018-11-25T04:18:45.731Z,19.50
2018-11-25T04:21:19.775Z,19.03
2018-11-25T04:23:53.657Z,21.03
2018-11-25T04:26:27.558Z,20.20
2018-11-25T04:29:01.530Z,19.73
2018-11-25T04:31:35.380Z,20.87
2018-11-25T04:34:09.298Z,20.70
2018-11-25T04:36:43.343Z,20.10
2018-11-25T04:39:17.199Z,18.97
2018-11-25T04:41:51.155Z,18.63
2018-11-25T04:44:25.193Z,22.40
2018-11-25T04:46:59.846Z,21.77
2018-11-25T04:49:33.886Z,22.37
2018-11-25T04:52:07.872Z,23.10
2018-11-25T04:54:41.958Z,18.30
2018-11-25T04:57:15.947Z,18.80
2018-11-25T04:59:49.976Z,20.20
2018-11-25T05:02:25.039Z,19.13
2018-11-25T05:04:59.019Z,19.77
2018-11-25T05:07:33.042Z,21.50
2018-11-25T05:10:11.337Z,23.90
2018-11-25T05:12:45.434Z,22.37
2018-11-25T05:18:00.271Z,25.10
2018-11-25T05:20:34.313Z,24.27
2018-11-25T05:23:08.291Z,27.63
2018-11-25T05:25:42.245Z,24.67
2018-11-25T05:28:16.191Z,25.60
2018-11-25T05:30:50.142Z,25.30
2018-11-25T05:33:24.260Z,24.13
2018-11-25T05:35:58.266Z,23.47
2018-11-25T05:38:32.273Z,25.77
2018-11-25T05:41:06.194Z,27.07
2018-11-25T05:43:40.211Z,27.10
2018-11-25T05:46:14.106Z,26.07
2018-11-25T05:48:48.067Z,26.70
2018-11-25T05:51:22.055Z,27.97
2018-11-25T05:53:56.002Z,27.90
2018-11-25T05:56:30.003Z,28.37
2018-11-25T05:59:04.038Z,27.23
2018-11-25T06:01:38.101Z,27.00
2018-11-25T06:04:12.033Z,29.97
2018-11-25T06:06:45.922Z,24.43
2018-11-25T06:09:19.874Z,23.80
2018-11-25T06:11:53.879Z,21.83
2018-11-25T06:14:27.936Z,22.50
2018-11-25T06:17:02.016Z,22.53
2018-11-25T06:19:35.990Z,21.30
2018-11-25T06:22:09.979Z,23.40
2018-11-25T06:24:43.978Z,20.20
2018-11-25T06:27:18.115Z,21.70
2018-11-25T06:29:51.991Z,21.10
2018-11-25T06:32:26.097Z,21.77
2018-11-25T06:34:59.941Z,20.73
2018-11-25T06:37:33.882Z,21.70
2018-11-25T06:40:08.920Z,20.23
2018-11-25T06:42:42.958Z,20.47
2018-11-25T06:45:19.432Z,20.37
2018-11-25T06:47:53.855Z,20.97
2018-11-25T06:50:27.856Z,19.00
2018-11-25T06:53:01.779Z,20.50
2018-11-25T06:55:35.730Z,17.73
2018-11-25T06:58:09.682Z,20.13
2018-11-25T07:00:43.657Z,21.80
2018-11-25T07:03:17.539Z,20.17
2018-11-25T07:05:51.523Z,21.10
2018-11-25T07:08:25.504Z,17.97
2018-11-25T07:10:59.470Z,19.67
2018-11-25T07:13:33.482Z,20.20
2018-11-25T07:16:07.443Z,21.17
2018-11-25T07:18:41.302Z,20.77
2018-11-25T07:21:15.270Z,19.97
2018-11-25T07:23:49.374Z,20.90
2018-11-25T07:26:23.253Z,23.23
2018-11-25T07:28:57.312Z,24.90
2018-11-25T07:31:31.338Z,24.33
2018-11-25T07:34:05.459Z,28.23
2018-11-25T07:36:39.504Z,25.17
2018-11-25T07:39:13.470Z,26.80
2018-11-25T07:41:47.484Z,26.30
2018-11-25T07:44:21.486Z,29.57
2018-11-25T07:46:55.490Z,29.40
2018-11-25T07:49:29.548Z,26.80
2018-11-25T07:52:03.558Z,31.10
2018-11-25T07:54:37.406Z,30.80
2018-11-25T07:57:11.377Z,31.60
2018-11-25T07:59:45.355Z,30.17
2018-11-25T08:02:19.177Z,29.93
2018-11-25T08:04:53.062Z,29.47
2018-11-25T08:07:27.078Z,28.03
2018-11-25T08:10:01.038Z,28.10
2018-11-25T08:12:34.963Z,29.07
2018-11-25T08:15:09.757Z,30.37
2018-11-25T08:17:43.813Z,27.83
2018-11-25T08:20:18.241Z,25.83
2018-11-25T08:22:52.248Z,27.73
2018-11-25T08:25:26.260Z,25.23
2018-11-25T08:28:00.162Z,28.73
2018-11-25T08:30:34.020Z,23.77
2018-11-25T08:33:07.959Z,27.27
2018-11-25T08:35:42.028Z,25.10
2018-11-25T08:38:15.970Z,28.27
2018-11-25T08:40:49.962Z,28.33
2018-11-25T08:43:23.958Z,28.37
2018-11-25T08:45:58.014Z,24.97
2018-11-25T08:48:31.850Z,28.13
2018-11-25T08:51:05.790Z,25.90
2018-11-25T08:53:39.787Z,24.63
2018-11-25T08:56:13.708Z,25.53
2018-11-25T08:58:47.740Z,26.57
2018-11-25T09:01:21.786Z,25.00
2018-11-25T09:03:55.734Z,27.03
2018-11-25T09:06:29.598Z,25.47
2018-11-25T09:09:04.032Z,30.30
2018-11-25T09:11:38.059Z,26.50
2018-11-25T09:14:12.091Z,25.67
2018-11-25T09:16:46.014Z,26.40
2018-11-25T09:19:20.118Z,24.57
2018-11-25T09:21:54.088Z,26.07
2018-11-25T09:24:28.066Z,25.57
2018-11-25T09:27:02.166Z,27.03
2018-11-25T09:29:36.354Z,24.17
2018-11-25T09:32:10.409Z,25.80
2018-11-25T09:34:44.554Z,23.97
2018-11-25T09:37:18.573Z,21.37
2018-11-25T09:39:52.606Z,23.60
2018-11-25T09:42:26.708Z,22.27
2018-11-25T09:45:00.854Z,24.03
2018-11-25T09:47:35.018Z,19.67
2018-11-25T09:50:09.785Z,21.33
2018-11-25T09:52:43.987Z,20.47
2018-11-25T09:55:20.446Z,23.70
2018-11-25T09:57:58.160Z,21.87
2018-11-25T10:00:33.924Z,23.77
2018-11-25T10:03:08.099Z,21.77
2018-11-25T10:05:42.299Z,25.00
2018-11-25T10:08:16.378Z,23.57
2018-11-25T10:10:52.762Z,23.67
2018-11-25T10:13:24.254Z,22.70
2018-11-25T10:15:58.343Z,25.83
2018-11-25T10:18:32.671Z,24.63
2018-11-25T10:21:06.639Z,24.50
2018-11-25T10:23:40.640Z,20.70
2018-11-25T10:26:15.150Z,22.73
2018-11-25T10:28:49.140Z,26.43
2018-11-25T10:31:23.307Z,24.67
2018-11-25T10:33:57.525Z,23.20
2018-11-25T10:36:31.699Z,24.97
2018-11-25T10:39:07.493Z,14.90
2018-11-25T10:41:41.845Z,17.17
2018-11-25T10:44:15.810Z,11.57
2018-11-25T10:46:50.016Z,17.80
2018-11-25T10:49:24.079Z,20.07
2018-11-25T10:51:58.118Z,12.93
2018-11-25T10:54:32.298Z,19.10
2018-11-25T10:57:06.735Z,18.23
2018-11-25T10:59:40.900Z,17.87
2018-11-25T11:02:19.583Z,16.77
2018-11-25T11:04:58.921Z,17.80
2018-11-25T11:07:39.036Z,17.90
2018-11-25T11:10:13.277Z,21.33
2018-11-25T11:12:47.438Z,20.60
2018-11-25T11:15:21.523Z,21.37
2018-11-25T11:17:56.050Z,23.50
2018-11-25T11:20:30.139Z,24.93
2018-11-25T11:23:04.532Z,23.23
2018-11-25T11:27:08.124Z,25.33
2018-11-25T11:29:42.210Z,26.30
2018-11-25T11:32:16.259Z,29.60
2018-11-25T11:34:50.367Z,28.97
2018-11-25T11:37:24.681Z,25.93
2018-11-25T11:39:58.796Z,28.57
2018-11-25T11:42:32.982Z,27.87
2018-11-25T11:45:09.680Z,28.47
2018-11-25T11:47:44.037Z,28.10
2018-11-25T11:50:18.810Z,29.30
2018-11-25T11:52:52.995Z,28.93
2018-11-25T11:55:27.041Z,28.57
2018-11-25T11:58:01.423Z,30.77
2018-11-25T12:00:35.528Z,29.20
2018-11-25T12:03:09.620Z,29.03
2018-11-25T12:05:43.824Z,28.90
2018-11-25T12:08:17.959Z,30.93
2018-11-25T12:10:52.438Z,30.93
2018-11-25T12:13:26.445Z,33.27
2018-11-25T12:16:00.588Z,30.67
2018-11-25T12:18:34.758Z,32.67
2018-11-25T12:21:08.854Z,31.53
2018-11-25T12:23:43.022Z,35.50
2018-11-25T12:26:17.351Z,34.70
2018-11-25T12:28:51.452Z,32.47
2018-11-25T12:31:25.700Z,39.77
2018-11-25T12:33:59.779Z,33.17
2018-11-25T12:36:33.855Z,35.47
2018-11-25T12:39:09.121Z,34.70
2018-11-25T12:41:43.318Z,33.37
2018-11-25T12:44:17.492Z,38.63
2018-11-25T12:46:51.725Z,35.30
2018-11-25T12:49:25.857Z,35.60
2018-11-25T12:52:00.188Z,34.63
2018-11-25T12:54:34.235Z,40.20
2018-11-25T12:57:08.475Z,39.20
2018-11-25T12:59:42.729Z,37.20
2018-11-25T13:02:16.850Z,39.50
2018-11-25T13:04:51.043Z,38.50
2018-11-25T13:07:25.439Z,38.00
2018-11-25T13:09:59.688Z,40.70
2018-11-25T13:12:34.310Z,37.80
2018-11-25T13:15:08.658Z,39.77
2018-11-25T13:17:42.814Z,41.43
2018-11-25T13:20:18.139Z,40.37
2018-11-25T13:22:52.483Z,39.30
2018-11-25T13:25:27.830Z,36.37
2018-11-25T13:28:02.195Z,37.17
2018-11-25T13:30:36.328Z,36.40
2018-11-25T13:33:10.810Z,21.77
2018-11-25T13:35:44.967Z,30.20
2018-11-25T13:38:19.112Z,28.33
2018-11-25T13:40:53.503Z,26.20
2018-11-25T13:43:27.736Z,22.63
2018-11-25T13:46:01.963Z,28.17
2018-11-25T13:48:37.207Z,24.93
2018-11-25T13:51:11.436Z,28.40
2018-11-25T13:53:45.638Z,29.50
2018-11-25T13:56:19.791Z,25.00
2018-11-25T13:58:53.831Z,26.30
2018-11-25T14:01:28.035Z,25.43
2018-11-25T14:04:02.240Z,27.10
2018-11-25T14:06:36.479Z,28.87
2018-11-25T14:09:13.017Z,24.83
2018-11-25T14:11:47.488Z,25.33
2018-11-25T14:14:21.511Z,23.33
2018-11-25T14:16:55.711Z,23.07
2018-11-25T14:19:30.020Z,20.27
2018-11-25T14:22:04.179Z,22.97
2018-11-25T14:24:38.380Z,23.73
2018-11-25T14:27:12.428Z,25.30
2018-11-25T14:29:46.583Z,23.67
2018-11-25T14:32:21.139Z,26.87
2018-11-25T14:34:55.498Z,26.13
2018-11-25T14:37:29.591Z,26.73
2018-11-25T14:40:03.688Z,25.40
2018-11-25T14:42:38.306Z,25.27
2018-11-25T14:45:12.947Z,29.30
2018-11-25T14:47:46.995Z,28.07
2018-11-25T14:50:21.004Z,29.60
2018-11-25T14:52:55.063Z,28.17
2018-11-25T14:55:29.287Z,26.97
2018-11-25T14:58:03.288Z,26.10
2018-11-25T15:00:37.494Z,27.87
2018-11-25T15:03:11.581Z,26.97
2018-11-25T15:05:46.657Z,25.23
2018-11-25T15:08:22.591Z,26.07
2018-11-25T15:10:56.722Z,23.50
2018-11-25T15:13:30.831Z,24.83
2018-11-25T15:16:06.495Z,25.20
2018-11-25T15:18:40.648Z,26.20
2018-11-25T15:21:14.963Z,25.10
2018-11-25T15:23:49.157Z,25.27
2018-11-25T15:26:23.386Z,22.30
2018-11-25T15:28:57.896Z,21.50
2018-11-25T15:31:32.120Z,21.33
2018-11-25T15:34:06.434Z,21.10
2018-11-25T15:36:40.563Z,23.83
2018-11-25T15:39:14.646Z,23.37
2018-11-25T15:41:48.840Z,21.30
2018-11-25T15:44:23.114Z,22.20
2018-11-25T15:46:57.543Z,22.43
2018-11-25T15:49:31.313Z,21.70
2018-11-25T15:52:05.924Z,23.57
2018-11-25T15:54:40.084Z,24.13
2018-11-25T15:57:14.361Z,26.63
2018-11-25T15:59:49.421Z,24.00
2018-11-25T16:02:23.575Z,24.77
2018-11-25T16:04:57.670Z,23.43
2018-11-25T16:07:31.803Z,23.10
2018-11-25T16:10:08.048Z,23.83
2018-11-25T16:12:43.026Z,27.10
2018-11-25T16:15:17.678Z,26.93
2018-11-25T16:17:51.709Z,24.03
2018-11-25T16:20:26.583Z,23.73
2018-11-25T16:23:03.963Z,26.23
2018-11-25T16:25:47.813Z,27.17
2018-11-25T16:28:26.065Z,27.00
2018-11-25T16:31:00.166Z,24.27
2018-11-25T16:33:36.223Z,25.20
2018-11-25T16:36:10.386Z,25.03
2018-11-25T16:38:44.533Z,25.00
2018-11-25T16:41:18.978Z,24.53
2018-11-25T16:43:53.024Z,23.00
2018-11-25T16:46:27.177Z,24.67
2018-11-25T16:49:01.456Z,25.63
2018-11-25T16:51:40.351Z,26.50
2018-11-25T16:54:14.667Z,23.43
2018-11-25T16:56:49.027Z,20.40
2018-11-25T16:59:23.287Z,23.33
2018-11-25T17:01:57.514Z,23.20
2018-11-25T17:04:31.635Z,15.60
2018-11-25T17:07:05.974Z,18.60
2018-11-25T17:09:40.252Z,14.50
2018-11-25T17:12:14.453Z,20.80
2018-11-25T17:14:49.261Z,13.33
2018-11-25T17:17:23.492Z,20.30
2018-11-25T17:19:57.867Z,18.40
2018-11-25T17:22:32.160Z,18.60
2018-11-25T17:25:07.556Z,18.50
2018-11-25T17:27:41.779Z,17.20
2018-11-25T17:30:16.420Z,17.40
2018-11-25T17:32:50.535Z,18.70
2018-11-25T17:35:26.497Z,20.57
2018-11-25T17:38:07.018Z,21.37
2018-11-25T17:40:41.124Z,20.17
2018-11-25T17:43:16.947Z,18.90
2018-11-25T17:45:51.057Z,23.30
2018-11-25T17:48:25.012Z,19.27
2018-11-25T17:50:59.110Z,20.97
2018-11-25T17:53:33.300Z,18.83
2018-11-25T17:56:07.470Z,19.87
2018-11-25T17:58:41.448Z,17.23
2018-11-25T18:01:15.666Z,15.20
2018-11-25T18:03:49.849Z,18.63
2018-11-25T18:06:24.172Z,19.67
2018-11-25T18:08:58.536Z,19.90
2018-11-25T18:11:32.658Z,17.87
2018-11-25T18:14:07.888Z,19.10
2018-11-25T18:16:42.095Z,18.10
2018-11-25T18:19:21.697Z,16.80
2018-11-25T18:21:57.876Z,16.17
2018-11-25T18:24:31.990Z,13.30
2018-11-25T18:27:06.172Z,18.33
2018-11-25T18:29:40.204Z,14.70
2018-11-25T18:32:14.383Z,15.57
2018-11-25T18:34:48.334Z,16.93
2018-11-25T18:37:22.490Z,15.53
2018-11-25T18:39:57.007Z,16.53
2018-11-25T18:42:31.802Z,14.67
2018-11-25T18:45:07.766Z,15.00
2018-11-25T18:47:42.328Z,16.90
2018-11-25T18:50:16.863Z,15.83
2018-11-25T18:52:51.655Z,14.70
2018-11-25T18:55:25.199Z,15.20
2018-11-25T18:57:59.323Z,18.60
2018-11-25T19:00:37.746Z,16.13
2018-11-25T19:03:11.880Z,15.23
2018-11-25T19:05:45.965Z,20.13
2018-11-25T19:08:19.971Z,16.63
2018-11-25T19:10:54.156Z,18.00
2018-11-25T19:13:28.402Z,16.63
2018-11-25T19:16:02.699Z,19.13
2018-11-25T19:18:36.815Z,15.70
2018-11-25T19:21:11.323Z,17.20
2018-11-25T19:23:45.327Z,17.07
2018-11-25T19:26:19.602Z,18.13
2018-11-25T19:28:53.655Z,16.93
2018-11-25T19:31:27.859Z,15.73
2018-11-25T19:34:01.934Z,17.97
2018-11-25T19:36:36.975Z,19.80
2018-11-25T19:39:11.134Z,18.30
2018-11-25T19:41:45.134Z,19.63
2018-11-25T19:44:19.277Z,17.53
2018-11-25T19:46:53.452Z,18.07
2018-11-25T19:49:29.147Z,18.23
2018-11-25T19:52:03.483Z,18.73
2018-11-25T19:54:38.100Z,19.30
2018-11-25T19:57:12.292Z,19.13
2018-11-25T19:59:46.677Z,18.70
2018-11-25T20:02:20.802Z,18.93
2018-11-25T20:04:55.010Z,21.67
2018-11-25T20:07:29.114Z,22.37
2018-11-25T20:10:03.299Z,23.53
2018-11-25T20:12:43.174Z,20.10
2018-11-25T20:15:17.781Z,21.57
2018-11-25T20:17:54.322Z,22.93
2018-11-25T20:20:28.045Z,21.80
2018-11-25T20:23:02.638Z,25.20
2018-11-25T20:25:36.826Z,22.10
2018-11-25T20:28:11.717Z,23.53
2018-11-25T20:30:45.730Z,22.30
2018-11-25T20:33:25.008Z,22.13
2018-11-25T20:36:00.649Z,23.20
2018-11-25T20:38:41.106Z,21.47
2018-11-25T20:41:15.726Z,22.67
2018-11-25T20:43:49.438Z,21.80
2018-11-25T20:46:29.014Z,24.83
2018-11-25T20:49:03.162Z,23.20
2018-11-25T20:51:42.616Z,24.53
2018-11-25T20:54:16.807Z,25.20
2018-11-25T20:56:50.951Z,22.93
2018-11-25T20:59:25.040Z,22.37
2018-11-25T21:01:59.231Z,24.23
2018-11-25T21:04:33.414Z,25.50
2018-11-25T21:07:07.454Z,26.00
2018-11-25T21:09:41.799Z,25.10
2018-11-25T21:12:16.136Z,23.27
2018-11-25T21:14:50.176Z,25.70
2018-11-25T21:17:24.344Z,24.67
2018-11-25T21:19:58.433Z,26.40
2018-11-25T21:22:32.562Z,28.63
2018-11-25T21:25:09.608Z,26.73
2018-11-25T21:27:43.778Z,27.87
2018-11-25T21:30:18.346Z,24.37
2018-11-25T21:32:53.243Z,26.57
2018-11-25T21:35:27.296Z,28.87
2018-11-25T21:38:01.398Z,28.23
2018-11-25T21:40:35.858Z,26.83
2018-11-25T21:43:09.895Z,27.57
2018-11-25T21:45:44.002Z,27.73
2018-11-25T21:48:17.925Z,27.27
2018-11-25T21:50:51.994Z,29.20
2018-11-25T21:53:26.070Z,29.33
2018-11-25T21:56:00.059Z,26.47
2018-11-25T21:58:34.233Z,29.60
2018-11-25T22:01:08.396Z,27.40
2018-11-25T22:03:42.374Z,28.77
2018-11-25T22:06:16.366Z,28.40
2018-11-25T22:08:50.434Z,29.77
2018-11-25T22:11:24.259Z,31.03
2018-11-25T22:13:58.306Z,30.50
2018-11-25T22:16:32.282Z,26.97
2018-11-25T22:19:06.170Z,31.93
2018-11-25T22:21:40.146Z,30.17
2018-11-25T22:24:14.146Z,27.83
2018-11-25T22:26:48.048Z,27.10
2018-11-25T22:29:21.924Z,27.90
2018-11-25T22:31:55.954Z,28.63
2018-11-25T22:34:30.012Z,28.20
2018-11-25T22:37:03.959Z,28.93
2018-11-25T22:39:37.983Z,28.97
2018-11-25T22:42:12.030Z,29.00
2018-11-25T22:44:46.029Z,27.47
2018-11-25T22:47:20.009Z,26.10
2018-11-25T22:49:53.990Z,25.13
2018-11-25T22:52:27.936Z,27.40
2018-11-25T22:55:01.805Z,25.13
2018-11-25T22:57:35.855Z,26.23
2018-11-25T23:00:12.120Z,25.83
2018-11-25T23:02:46.102Z,25.30
2018-11-25T23:05:25.819Z,25.13
2018-11-25T23:07:59.851Z,27.27
2018-11-25T23:10:33.995Z,26.47
2018-11-25T23:13:07.950Z,26.47
2018-11-25T23:15:41.904Z,25.20
2018-11-25T23:18:15.876Z,25.67
2018-11-25T23:20:51.179Z,26.87
2018-11-25T23:23:25.098Z,23.77
2018-11-25T23:25:59.030Z,26.80
2018-11-25T23:28:32.871Z,27.47
2018-11-25T23:31:06.933Z,27.90
2018-11-25T23:33:40.929Z,26.73
2018-11-25T23:36:14.914Z,24.57
2018-11-25T23:38:48.951Z,27.03
2018-11-25T23:41:22.941Z,27.10
2018-11-25T23:43:57.190Z,26.40
2018-11-25T23:46:31.083Z,28.00
2018-11-25T23:49:04.942Z,26.93
2018-11-25T23:51:38.793Z,28.00
2018-11-25T23:54:12.718Z,26.63
2018-11-25T23:56:46.728Z,25.43
2018-11-25T23:59:20.683Z,25.87
